Time;durP1;ratioP1;P1;durP2;ratioP2;P2;SDS_P1;SDS_P2;PMS_P1;PMS_P2;Temp;Humidity;BMP_temperature;BMP_pressure;BME280_temperature;BME280_humidity;BME280_pressure;Samples;Min_cycle;Max_cycle;Signal;HPM_P1;HPM_P2
2023/09/22 00:01:22;;;;;;;3.75;0.98;;;12.50;99.90;;;11.73;100.00;99527.88;4201343;28;20530;-72
2023/09/22 00:03:23;;;;;;;5.53;0.93;;;12.50;99.90;;;11.71;100.00;99537.81;4202322;28;20025;-72
2023/09/22 00:05:24;;;;;;;5.20;1.00;;;12.50;99.90;;;11.71;100.00;99537.03;4191907;28;20036;-72
2023/09/22 00:07:25;;;;;;;7.40;1.20;;;12.40;99.90;;;11.70;100.00;99530.91;4184609;28;20047;-72
2023/09/22 00:09:26;;;;;;;3.15;0.82;;;12.50;99.90;;;11.72;100.00;99531.53;4200199;28;20028;-72
2023/09/22 00:11:27;;;;;;;2.63;0.80;;;12.50;99.90;;;11.75;100.00;99532.97;4190352;28;20075;-72
2023/09/22 00:13:27;;;;;;;5.85;0.55;;;12.50;99.90;;;11.75;100.00;99533.78;4201148;28;20029;-72
2023/09/22 00:15:28;;;;;;;3.65;0.90;;;12.50;99.90;;;11.82;100.00;99539.94;4188806;28;20037;-72
2023/09/22 00:17:29;;;;;;;3.17;0.70;;;12.50;99.90;;;11.82;100.00;99541.75;4185521;28;20028;-72
2023/09/22 00:19:31;;;;;;;6.82;0.98;;;12.60;99.90;;;11.85;100.00;99536.91;4189739;28;20503;-72
2023/09/22 00:21:32;;;;;;;5.88;1.13;;;12.60;99.90;;;11.86;100.00;99538.53;4185632;28;20024;-72
2023/09/22 00:23:33;;;;;;;2.70;0.93;;;12.60;99.90;;;11.89;100.00;99529.41;4196481;28;20033;-72
2023/09/22 00:25:34;;;;;;;7.35;0.82;;;12.60;99.90;;;11.92;100.00;99532.47;4185864;28;20017;-72
2023/09/22 00:27:35;;;;;;;4.55;1.00;;;12.60;99.90;;;11.91;100.00;99519.47;4185529;28;20456;-72
2023/09/22 00:29:37;;;;;;;5.10;1.08;;;12.60;99.90;;;11.95;100.00;99529.44;4185450;28;20025;-72
2023/09/22 00:31:38;;;;;;;4.50;0.63;;;12.70;99.90;;;11.98;100.00;99523.75;4200775;28;20028;-72
2023/09/22 00:33:38;;;;;;;4.75;0.88;;;12.70;99.90;;;11.98;100.00;99515.03;4185101;28;20051;-72
2023/09/22 00:35:39;;;;;;;3.78;0.65;;;12.70;99.90;;;11.97;100.00;99511.59;4188472;28;20087;-72
2023/09/22 00:37:40;;;;;;;3.60;0.93;;;12.70;99.90;;;12.00;100.00;99520.94;4183979;28;20040;-72
2023/09/22 00:39:41;;;;;;;4.28;1.38;;;12.70;99.90;;;12.03;100.00;99515.28;4200751;28;20033;-72
2023/09/22 00:41:42;;;;;;;3.90;1.05;;;12.70;99.90;;;12.02;100.00;99508.34;4185190;28;20032;-72
2023/09/22 00:43:43;;;;;;;4.60;0.80;;;12.70;99.90;;;12.04;100.00;99514.25;4188173;28;20051;-72
2023/09/22 00:45:49;;;;;;;2.28;0.75;;;12.70;99.90;;;12.05;100.00;99514.06;4201246;28;20373;-72
2023/09/22 00:47:50;;;;;;;3.80;0.80;;;12.80;99.90;;;12.08;100.00;99520.78;4189717;28;20032;-72
2023/09/22 00:49:53;;;;;;;4.13;0.70;;;12.80;99.90;;;12.09;100.00;99519.78;4184950;28;20069;-72
2023/09/22 00:51:54;;;;;;;5.68;0.75;;;12.80;99.90;;;12.10;100.00;99521.38;4183851;28;20029;-72
2023/09/22 00:53:55;;;;;;;5.20;1.20;;;12.80;99.90;;;12.11;100.00;99518.56;4191896;28;20028;-72
2023/09/22 00:55:57;;;;;;;3.15;1.00;;;12.80;99.90;;;12.12;100.00;99519.38;4184130;28;20029;-72
2023/09/22 00:57:59;;;;;;;3.22;0.80;;;12.80;99.90;;;12.13;100.00;99505.13;4199325;28;20024;-72
2023/09/22 01:00:00;;;;;;;3.38;0.85;;;12.80;99.90;;;12.11;100.00;99502.72;4196196;28;20412;-72
2023/09/22 01:02:01;;;;;;;2.83;0.88;;;12.80;99.90;;;12.13;100.00;99515.72;4183801;28;20086;-72
2023/09/22 01:04:03;;;;;;;4.35;0.63;;;12.90;99.90;;;12.09;100.00;99506.56;4184950;28;20089;-72
2023/09/22 01:06:09;;;;;;;6.25;0.60;;;12.80;99.90;;;12.09;100.00;99515.31;4198068;28;20399;-72
2023/09/22 01:08:10;;;;;;;4.10;0.80;;;12.90;99.90;;;12.11;100.00;99512.47;4188673;28;20037;-72
2023/09/22 01:10:12;;;;;;;5.05;0.90;;;12.90;99.90;;;12.13;100.00;99510.44;4192530;28;20397;-72
2023/09/22 01:12:13;;;;;;;4.65;1.00;;;12.90;99.90;;;12.12;100.00;99509.63;4185087;28;20029;-72
2023/09/22 01:14:13;;;;;;;3.85;1.15;;;12.90;99.90;;;12.06;100.00;99525.44;4198380;28;20477;-72
2023/09/22 01:16:14;;;;;;;8.43;1.42;;;12.90;99.90;;;12.08;100.00;99521.59;4183851;28;20029;-72
2023/09/22 01:18:15;;;;;;;4.03;1.20;;;12.90;99.90;;;11.99;100.00;99549.19;4191794;28;20480;-72
2023/09/22 01:20:16;;;;;;;5.00;1.25;;;12.80;99.90;;;11.97;100.00;99535.38;4178147;28;20028;-72
2023/09/22 01:22:18;;;;;;;1.10;0.50;;;12.80;99.90;;;11.90;100.00;99523.94;4199950;28;20032;-72
2023/09/22 01:24:19;;;;;;;2.55;0.60;;;12.70;99.90;;;11.90;100.00;99510.72;4195519;28;20053;-73
2023/09/22 01:26:21;;;;;;;2.88;0.98;;;12.70;99.90;;;11.83;100.00;99530.16;4189381;28;20031;-72
2023/09/22 01:28:22;;;;;;;3.45;0.60;;;12.60;99.90;;;11.71;100.00;99545.75;4189087;28;20043;-72
2023/09/22 01:30:23;;;;;;;3.67;0.60;;;12.60;99.90;;;11.54;100.00;99557.56;4184792;28;20021;-72
2023/09/22 01:32:23;;;;;;;2.75;0.70;;;12.50;99.90;;;11.59;100.00;99565.72;4184958;28;20546;-72
2023/09/22 01:34:24;;;;;;;4.28;0.60;;;12.50;99.90;;;11.56;100.00;99564.28;4185787;28;20013;-72
2023/09/22 01:36:25;;;;;;;6.18;0.85;;;12.40;99.90;;;11.53;100.00;99566.50;4190613;28;20022;-72
2023/09/22 01:38:26;;;;;;;3.17;0.65;;;12.40;99.90;;;11.48;100.00;99561.78;4184727;28;20083;-72
2023/09/22 01:40:27;;;;;;;2.55;0.93;;;12.30;99.90;;;11.51;100.00;99550.03;4187705;28;20055;-72
2023/09/22 01:42:28;;;;;;;1.83;0.80;;;12.30;99.90;;;11.54;100.00;99549.66;4184854;28;20025;-72
2023/09/22 01:44:29;;;;;;;2.45;0.77;;;12.30;99.90;;;11.48;100.00;99547.75;4195186;28;20028;-72
2023/09/22 01:46:29;;;;;;;1.90;0.60;;;12.30;99.90;;;11.40;100.00;99543.44;4186498;28;20021;-72
2023/09/22 01:48:30;;;;;;;1.92;0.40;;;12.20;99.90;;;11.38;100.00;99545.44;4183481;28;20025;-72
2023/09/22 01:50:41;;;;;;;2.80;1.17;;;12.20;99.90;;;11.30;100.00;99550.88;4191441;28;20068;-72
2023/09/22 01:52:42;;;;;;;1.95;0.50;;;12.10;99.90;;;11.21;100.00;99562.56;4189040;28;20029;-72
2023/09/22 01:54:43;;;;;;;2.33;0.80;;;12.00;99.90;;;11.12;100.00;99563.69;4184660;28;20028;-72
2023/09/22 01:56:44;;;;;;;5.95;0.60;;;11.90;99.90;;;11.05;100.00;99562.81;4186218;28;20029;-72
2023/09/22 01:58:45;;;;;;;5.72;0.60;;;11.80;99.90;;;10.92;100.00;99560.03;4187799;28;20025;-72
2023/09/22 02:00:48;;;;;;;1.58;0.60;;;11.80;99.90;;;10.82;100.00;99560.31;4197446;28;20400;-72
2023/09/22 02:02:50;;;;;;;2.63;0.63;;;11.70;99.90;;;10.73;100.00;99552.72;4187559;28;20488;-72
2023/09/22 02:04:51;;;;;;;1.65;0.60;;;11.60;99.90;;;10.62;100.00;99564.56;4190702;28;20511;-72
2023/09/22 02:06:52;;;;;;;4.45;1.20;;;11.50;99.90;;;10.53;100.00;99568.31;4186616;28;20032;-72
2023/09/22 02:08:53;;;;;;;4.00;1.23;;;11.40;99.90;;;10.45;100.00;99568.41;4198528;28;20029;-72
2023/09/22 02:10:54;;;;;;;4.47;0.88;;;11.30;99.90;;;10.36;100.00;99567.69;4204278;28;20095;-72
2023/09/22 02:12:55;;;;;;;1.27;0.60;;;11.20;99.90;;;10.33;100.00;99567.25;4199627;28;20036;-72
2023/09/22 02:14:55;;;;;;;1.85;0.60;;;11.20;99.90;;;10.27;100.00;99574.06;4186204;28;20516;-72
2023/09/22 02:16:58;;;;;;;1.88;0.60;;;11.00;99.90;;;10.21;100.00;99573.97;4190455;28;20032;-72
2023/09/22 02:18:59;;;;;;;5.32;0.90;;;11.00;99.90;;;10.11;100.00;99563.66;4188945;28;20027;-72
2023/09/22 02:21:00;;;;;;;2.42;0.80;;;10.90;99.90;;;10.08;100.00;99571.94;4186353;28;20385;-72
2023/09/22 02:23:01;;;;;;;2.75;0.60;;;10.90;99.90;;;10.03;100.00;99577.72;4192725;28;20060;-72
2023/09/22 02:25:02;;;;;;;4.95;0.75;;;10.80;99.90;;;9.96;100.00;99582.09;4204015;28;20475;-72
2023/09/22 02:27:04;;;;;;;2.25;0.73;;;10.80;99.90;;;9.90;100.00;99582.81;4203969;28;20099;-72
2023/09/22 02:29:05;;;;;;;3.05;0.70;;;10.70;99.90;;;9.86;100.00;99583.34;4204027;28;20033;-72
2023/09/22 02:31:06;;;;;;;2.88;0.60;;;10.70;99.90;;;9.82;100.00;99584.72;4196395;28;20025;-72
2023/09/22 02:33:08;;;;;;;4.53;0.90;;;10.60;99.90;;;9.82;100.00;99585.53;4186279;28;20025;-72
2023/09/22 02:35:09;;;;;;;2.05;0.50;;;10.60;99.90;;;9.79;100.00;99596.44;4199106;28;20551;-72
2023/09/22 02:37:10;;;;;;;2.13;0.52;;;10.60;99.90;;;9.76;100.00;99603.88;4193626;28;20022;-72
2023/09/22 02:39:11;;;;;;;2.17;0.80;;;10.50;99.90;;;9.71;100.00;99612.28;4203564;28;20078;-72
2023/09/22 02:41:14;;;;;;;1.85;0.70;;;10.50;99.90;;;9.68;100.00;99614.47;4194313;28;20021;-72
2023/09/22 02:43:15;;;;;;;1.65;0.57;;;10.50;99.90;;;9.62;100.00;99605.47;4185777;28;20029;-72
2023/09/22 02:45:16;;;;;;;1.65;0.70;;;10.40;99.90;;;9.58;100.00;99619.16;4203800;28;20032;-72
2023/09/22 02:47:17;;;;;;;1.60;0.40;;;10.40;99.90;;;9.56;100.00;99627.22;4195811;28;20028;-72
2023/09/22 02:49:17;;;;;;;1.67;0.60;;;10.40;99.90;;;9.55;100.00;99622.97;4186840;28;20427;-72
2023/09/22 02:51:18;;;;;;;4.85;1.35;;;10.30;99.90;;;9.56;100.00;99632.50;4199012;28;20130;-72
2023/09/22 02:53:19;;;;;;;3.75;0.85;;;10.30;99.90;;;9.55;100.00;99635.31;4186973;28;20032;-72
2023/09/22 02:55:20;;;;;;;1.83;0.68;;;10.30;99.90;;;9.53;100.00;99640.75;4186959;28;20028;-72
2023/09/22 02:57:21;;;;;;;4.25;1.23;;;10.30;99.90;;;9.50;100.00;99638.47;4186770;28;20078;-72
2023/09/22 02:59:25;;;;;;;4.03;1.10;;;10.30;99.90;;;9.51;100.00;99645.38;4190233;28;20024;-72
2023/09/22 03:01:26;;;;;;;2.90;1.13;;;10.30;99.90;;;9.56;100.00;99656.19;4185782;28;20104;-72
2023/09/22 03:03:27;;;;;;;4.95;1.40;;;10.30;99.90;;;9.53;100.00;99646.00;4186744;28;20040;-72
2023/09/22 03:05:30;;;;;;;4.45;0.95;;;10.30;99.90;;;9.54;100.00;99652.09;4186744;28;20074;-72
2023/09/22 03:07:30;;;;;;;3.70;0.80;;;10.30;99.90;;;9.49;100.00;99657.91;4198204;28;20053;-72
2023/09/22 03:09:31;;;;;;;4.90;0.70;;;10.30;99.90;;;9.48;100.00;99655.44;4187868;28;20485;-72
2023/09/22 03:11:36;;;;;;;4.32;0.82;;;10.30;99.90;;;9.49;100.00;99663.16;4191921;28;20017;-72
2023/09/22 03:13:37;;;;;;;4.38;0.90;;;10.30;99.90;;;9.42;100.00;99649.06;4186635;28;20033;-72
2023/09/22 03:15:38;;;;;;;5.07;1.27;;;10.30;99.90;;;9.46;100.00;99663.50;4198672;28;20020;-72
2023/09/22 03:17:39;;;;;;;3.75;0.88;;;10.30;99.90;;;9.48;100.00;99671.22;4186651;28;20021;-72
2023/09/22 03:19:40;;;;;;;6.05;1.10;;;10.20;99.90;;;9.43;100.00;99661.22;4192072;28;20021;-72
2023/09/22 03:21:41;;;;;;;4.22;0.90;;;10.20;99.90;;;9.49;100.00;99670.25;4191943;28;20039;-72
2023/09/22 03:23:42;;;;;;;3.78;0.90;;;10.20;99.90;;;9.42;100.00;99659.59;4186443;28;20025;-72
2023/09/22 03:25:47;;;;;;;6.45;1.63;;;10.30;99.90;;;9.51;100.00;99666.44;4186483;28;20024;-71
2023/09/22 03:27:48;;;;;;;4.57;1.00;;;10.30;99.90;;;9.42;100.00;99662.22;4186499;28;20024;-72
2023/09/22 03:29:49;;;;;;;3.22;0.98;;;10.30;99.90;;;9.41;100.00;99682.44;4195594;28;20507;-72
2023/09/22 03:31:50;;;;;;;3.15;0.70;;;10.20;99.90;;;9.41;100.00;99679.81;4187692;28;20099;-72
2023/09/22 03:33:51;;;;;;;3.05;0.95;;;10.20;99.90;;;9.36;100.00;99689.22;4186179;28;20404;-72
2023/09/22 03:35:51;;;;;;;3.22;0.90;;;10.20;99.90;;;9.32;100.00;99687.94;4194960;28;20025;-72
2023/09/22 03:37:54;;;;;;;3.10;0.60;;;10.20;99.90;;;9.30;100.00;99685.47;4202651;28;20102;-72
2023/09/22 03:39:56;;;;;;;3.95;0.93;;;10.10;99.90;;;9.27;100.00;99690.28;4201259;28;20059;-72
2023/09/22 03:41:57;;;;;;;3.22;0.85;;;10.10;99.90;;;9.25;100.00;99687.81;4186254;28;20370;-72
2023/09/22 03:43:58;;;;;;;3.95;1.15;;;10.10;99.90;;;9.36;100.00;99689.22;4192631;28;20080;-72
2023/09/22 03:45:59;;;;;;;4.30;0.90;;;10.10;99.90;;;9.33;100.00;99700.09;4202644;28;20028;-72
2023/09/22 03:48:00;;;;;;;5.88;1.30;;;10.20;99.90;;;9.30;100.00;99701.28;4202669;28;20025;-72
2023/09/22 03:50:01;;;;;;;2.33;1.10;;;10.10;99.90;;;9.26;100.00;99702.59;4190205;28;20036;-72
2023/09/22 03:52:02;;;;;;;6.22;1.42;;;10.10;99.90;;;9.28;100.00;99705.91;4184998;28;20017;-72
2023/09/22 03:54:03;;;;;;;5.10;0.93;;;10.10;99.90;;;9.25;100.00;99713.31;4188899;28;20064;-72
2023/09/22 03:56:04;;;;;;;3.45;1.40;;;10.10;99.90;;;9.22;100.00;99713.66;4184634;28;20035;-72
2023/09/22 03:58:05;;;;;;;1.88;0.93;;;10.00;99.90;;;9.24;100.00;99714.28;4200199;28;20031;-72
2023/09/22 04:00:17;;;;;;;4.30;1.15;;;10.00;99.90;;;9.25;100.00;99715.94;4188971;28;20031;-72
2023/09/22 04:02:18;;;;;;;2.38;0.95;;;10.00;99.90;;;9.21;100.00;99717.28;4184256;28;20037;-72
2023/09/22 04:04:18;;;;;;;2.15;0.73;;;10.00;99.90;;;9.17;100.00;99721.25;4185560;28;20021;-72
2023/09/22 04:06:19;;;;;;;2.22;0.88;;;10.00;99.90;;;9.14;100.00;99726.88;4187960;28;20078;-72
2023/09/22 04:08:21;;;;;;;2.20;0.88;;;10.00;99.90;;;9.08;100.00;99722.28;4186002;28;20034;-72
2023/09/22 04:10:25;;;;;;;3.63;1.13;;;9.90;99.90;;;9.13;100.00;99731.31;4186427;28;20017;-71
2023/09/22 04:12:26;;;;;;;2.88;0.90;;;9.90;99.90;;;9.11;100.00;99719.31;4185674;28;20057;-72
2023/09/22 04:14:27;;;;;;;1.48;0.80;;;9.90;99.90;;;9.10;100.00;99736.06;4185794;28;20078;-72
2023/09/22 04:16:28;;;;;;;5.63;1.27;;;9.90;99.90;;;9.05;100.00;99728.69;4185789;28;20047;-72
2023/09/22 04:18:29;;;;;;;3.97;0.80;;;9.90;99.90;;;9.09;100.00;99744.94;4185514;28;20021;-72
2023/09/22 04:20:32;;;;;;;2.72;1.00;;;9.90;99.90;;;9.06;100.00;99742.66;4196163;28;20070;-72
2023/09/22 04:22:34;;;;;;;3.70;0.90;;;9.90;99.90;;;9.01;100.00;99751.06;4184200;28;20036;-72
2023/09/22 04:24:36;;;;;;;1.80;1.05;;;9.80;99.90;;;8.98;100.00;99747.97;4200925;28;20032;-72
2023/09/22 04:26:44;;;;;;;6.13;0.90;;;9.80;99.90;;;8.96;100.00;99756.00;4184544;28;20040;-72
2023/09/22 04:28:46;;;;;;;4.78;1.13;;;9.80;99.90;;;8.98;100.00;99755.84;4199000;28;20079;-72
2023/09/22 04:30:47;;;;;;;2.42;0.90;;;9.80;99.90;;;8.95;100.00;99756.19;4196701;28;20021;-72
2023/09/22 04:32:51;;;;;;;8.60;1.20;;;9.80;99.90;;;8.94;100.00;99763.25;4192804;28;20028;-72
2023/09/22 04:34:53;;;;;;;;;;;9.80;99.90;;;8.92;100.00;99761.78;4186002;28;20021;-72
2023/09/22 04:36:54;;;;;;;2.33;0.70;;;9.80;99.90;;;8.90;100.00;99762.75;4185125;28;19920;-72
2023/09/22 04:38:54;;;;;;;4.35;0.73;;;9.80;99.90;;;8.87;100.00;99757.84;4184080;28;20041;-71
2023/09/22 04:41:01;;;;;;;6.03;1.85;;;9.70;99.90;;;8.87;100.00;99767.53;4198946;28;20032;-72
2023/09/22 04:43:02;;;;;;;3.80;1.20;;;9.70;99.90;;;8.86;100.00;99772.00;4189838;28;20111;-72
2023/09/22 04:45:04;;;;;;;2.10;0.70;;;9.70;99.90;;;8.85;100.00;99764.25;4185190;28;20104;-72
2023/09/22 04:47:04;;;;;;;4.18;0.82;;;9.70;99.90;;;8.84;100.00;99762.66;4185302;28;20032;-72
2023/09/22 04:49:06;;;;;;;3.50;0.80;;;9.70;99.90;;;8.84;100.00;99765.28;4183765;28;20017;-72
2023/09/22 04:51:07;;;;;;;2.50;0.90;;;9.70;99.90;;;8.82;100.00;99773.31;4189954;28;20032;-72
2023/09/22 04:53:08;;;;;;;1.25;0.65;;;9.70;99.90;;;8.79;100.00;99776.28;4185061;28;20029;-72
2023/09/22 04:55:09;;;;;;;1.60;0.70;;;9.60;99.90;;;8.79;100.00;99778.09;4188725;28;20024;-72
2023/09/22 04:57:10;;;;;;;1.67;0.77;;;9.60;99.90;;;8.77;100.00;99780.91;4189758;28;20029;-72
2023/09/22 04:59:10;;;;;;;2.75;0.75;;;9.60;99.90;;;8.72;100.00;99785.03;4196351;28;20095;-72
2023/09/22 05:01:11;;;;;;;3.78;0.82;;;9.50;99.90;;;8.73;100.00;99787.47;4186155;28;20036;-71
2023/09/22 05:03:13;;;;;;;1.80;0.80;;;9.50;99.90;;;8.73;100.00;99784.84;4185148;28;20037;-72
2023/09/22 05:05:18;;;;;;;2.20;0.70;;;9.50;99.90;;;8.75;100.00;99793.38;4191338;28;20025;-72
2023/09/22 05:07:19;;;;;;;1.70;0.80;;;9.50;99.90;;;8.74;100.00;99786.50;4184083;28;20083;-72
2023/09/22 05:09:20;;;;;;;2.70;0.57;;;9.60;99.90;;;8.73;100.00;99784.84;4198384;28;20024;-72
2023/09/22 05:11:21;;;;;;;2.28;0.68;;;9.50;99.90;;;8.71;100.00;99797.34;4185122;28;20029;-72
2023/09/22 05:13:22;;;;;;;4.03;1.23;;;9.50;99.90;;;8.70;100.00;99803.56;4185129;28;20021;-72
2023/09/22 05:15:24;;;;;;;2.80;0.65;;;9.50;99.90;;;8.68;100.00;99800.31;4187759;28;20069;-72
2023/09/22 05:17:25;;;;;;;2.03;0.70;;;9.50;99.90;;;8.64;100.00;99798.97;4202438;28;20092;-72
2023/09/22 05:19:26;;;;;;;3.20;0.70;;;9.40;99.90;;;8.64;100.00;99804.25;4186690;28;20135;-72
2023/09/22 05:21:26;;;;;;;2.10;0.60;;;9.50;99.90;;;8.66;100.00;99811.97;4194418;28;20041;-72
2023/09/22 05:23:34;;;;;;;3.00;0.70;;;9.40;99.90;;;8.64;100.00;99817.38;4184881;28;20502;-72
2023/09/22 05:25:41;;;;;;;1.80;0.68;;;9.40;99.90;;;8.62;100.00;99821.19;4185084;28;20388;-72
2023/09/22 05:27:45;;;;;;;3.25;0.60;;;9.40;99.90;;;8.55;100.00;99818.38;4188934;28;20134;-72
2023/09/22 05:29:46;;;;;;;3.25;0.77;;;9.40;99.90;;;8.58;100.00;99833.81;4192421;28;20012;-72
2023/09/22 05:31:47;;;;;;;1.52;0.60;;;9.40;99.90;;;8.54;100.00;99837.75;4190693;28;20033;-72
2023/09/22 05:33:48;;;;;;;2.97;0.65;;;9.30;99.90;;;8.52;100.00;99842.38;4202187;28;20017;-72
2023/09/22 05:35:49;;;;;;;2.05;0.68;;;9.30;99.90;;;8.51;100.00;99845.97;4190962;28;20025;-72
2023/09/22 05:37:52;;;;;;;1.85;0.82;;;9.30;99.90;;;8.50;100.00;99852.22;4196520;28;20020;-71
2023/09/22 05:39:53;;;;;;;3.47;0.90;;;9.30;99.90;;;8.52;100.00;99854.69;4204690;28;20119;-72
2023/09/22 05:41:54;;;;;;;3.08;0.90;;;9.30;99.90;;;8.52;100.00;99873.91;4189079;28;20063;-72
2023/09/22 05:43:56;;;;;;;3.55;0.65;;;9.30;99.90;;;8.50;100.00;99867.19;4193929;28;20028;-72
2023/09/22 05:45:57;;;;;;;4.88;0.75;;;9.30;99.90;;;8.50;100.00;99880.31;4194495;28;20535;-72
2023/09/22 05:47:58;;;;;;;1.10;0.60;;;9.30;99.90;;;8.46;100.00;99874.56;4186869;28;20029;-72
2023/09/22 05:49:59;;;;;;;1.90;0.68;;;9.30;99.90;;;8.48;100.00;99877.88;4199885;28;20013;-72
2023/09/22 05:52:01;;;;;;;2.25;0.73;;;9.30;99.90;;;8.48;100.00;99882.28;4188145;28;20051;-72
2023/09/22 05:54:03;;;;;;;3.97;0.80;;;9.30;99.90;;;8.48;100.00;99877.88;4196661;28;20029;-72
2023/09/22 05:56:09;;;;;;;3.50;0.93;;;9.30;99.90;;;8.49;100.00;99895.25;4204418;28;20029;-72
2023/09/22 05:58:12;;;;;;;2.28;0.93;;;9.30;99.90;;;8.52;100.00;99894.09;4186313;28;20067;-72
2023/09/22 06:00:17;;;;;;;3.17;0.98;;;9.30;99.90;;;8.53;100.00;99890.50;4198167;28;20177;-72
2023/09/22 06:02:19;;;;;;;2.72;0.70;;;9.30;99.90;;;8.53;100.00;99895.75;4190148;28;20021;-71
2023/09/22 06:04:20;;;;;;;2.97;1.30;;;9.30;99.90;;;8.53;100.00;99901.84;4187576;28;20087;-72
2023/09/22 06:06:21;;;;;;;3.97;1.42;;;9.30;99.90;;;8.52;100.00;99904.63;4191145;28;20024;-72
2023/09/22 06:08:22;;;;;;;8.20;0.75;;;9.30;99.90;;;8.56;100.00;99914.66;4204421;28;20047;-72
2023/09/22 06:10:24;;;;;;;3.42;0.80;;;9.40;99.90;;;8.53;100.00;99912.34;4202912;28;20503;-72
2023/09/22 06:12:25;;;;;;;4.85;0.95;;;9.40;99.90;;;8.58;100.00;99917.09;4190939;28;20054;-72
2023/09/22 06:14:26;;;;;;;2.55;1.00;;;9.40;99.90;;;8.61;100.00;99917.63;4187714;28;20021;-72
2023/09/22 06:16:27;;;;;;;4.82;1.00;;;9.40;99.90;;;8.62;100.00;99921.06;4196393;28;20025;-72
2023/09/22 06:18:28;;;;;;;1.65;0.95;;;9.40;99.90;;;8.63;100.00;99927.97;4195920;28;20446;-72
2023/09/22 06:20:29;;;;;;;6.32;1.13;;;9.40;99.90;;;8.62;100.00;99927.16;4197062;28;20013;-72
2023/09/22 06:22:30;;;;;;;4.93;1.42;;;9.40;99.90;;;8.63;100.00;99927.97;4187826;28;20404;-72
2023/09/22 06:24:31;;;;;;;3.47;0.90;;;9.50;99.90;;;8.65;100.00;99929.47;4192653;28;20056;-72
2023/09/22 06:26:32;;;;;;;2.83;0.80;;;9.40;99.90;;;8.66;100.00;99933.72;4186213;28;20037;-72
2023/09/22 06:28:32;;;;;;;5.88;0.90;;;9.50;99.90;;;8.72;100.00;99940.94;4199240;28;20051;-72
2023/09/22 06:30:34;;;;;;;2.70;0.57;;;9.50;99.90;;;8.71;100.00;99930.59;4194538;28;20037;-72
2023/09/22 06:32:35;;;;;;;3.90;1.15;;;9.50;99.90;;;8.73;100.00;99944.41;4175727;28;20021;-72
2023/09/22 06:34:36;;;;;;;1.80;0.90;;;9.50;99.90;;;8.76;100.00;99944.91;4185888;28;20491;-72
2023/09/22 06:36:37;;;;;;;1.67;0.60;;;9.60;99.90;;;8.79;100.00;99952.47;4189276;28;20510;-72
2023/09/22 06:38:38;;;;;;;3.58;0.70;;;9.60;99.90;;;8.79;100.00;99949.84;4197934;28;20427;-72
2023/09/22 06:40:41;;;;;;;5.13;0.75;;;9.60;99.90;;;8.85;100.00;99948.34;4196773;28;20113;-71
2023/09/22 06:42:44;;;;;;;4.47;0.75;;;9.70;99.90;;;8.92;100.00;99959.03;4193828;28;20403;-71
2023/09/22 06:44:46;;;;;;;;;;;9.70;99.90;;;8.92;100.00;99964.31;4182905;28;20049;-72
2023/09/22 06:46:49;;;;;;;2.58;0.75;;;9.70;99.90;;;8.99;100.00;99965.31;4189798;28;20661;-72
2023/09/22 06:48:50;;;;;;;1.58;0.47;;;9.80;99.90;;;9.01;100.00;99972.03;4203478;28;20035;-72
2023/09/22 06:50:57;;;;;;;3.00;1.00;;;9.80;99.90;;;9.03;100.00;99966.59;4193595;28;20124;-72
2023/09/22 06:52:58;;;;;;;4.18;0.70;;;9.80;99.90;;;9.09;100.00;99972.03;4199006;28;20020;-72
2023/09/22 06:55:02;;;;;;;4.10;0.80;;;9.90;99.90;;;9.15;100.00;99970.53;4194935;28;20024;-72
2023/09/22 06:57:04;;;;;;;4.00;0.75;;;9.90;99.90;;;9.18;100.00;99978.09;4186985;28;20057;-72
2023/09/22 06:59:07;;;;;;;2.72;1.10;;;10.00;99.90;;;9.27;100.00;99985.00;4186806;28;20044;-72
2023/09/22 07:01:13;;;;;;;1.73;0.65;;;10.00;99.90;;;9.27;100.00;99985.00;4186776;28;20071;-71
2023/09/22 07:03:14;;;;;;;2.78;0.70;;;10.10;99.90;;;9.35;100.00;99993.72;4190182;28;20033;-72
2023/09/22 07:05:21;;;;;;;1.40;0.50;;;10.10;99.90;;;9.39;100.00;99999.47;4186822;28;20025;-72
2023/09/22 07:07:22;;;;;;;7.95;0.85;;;10.20;99.90;;;9.43;100.00;100006.88;4197690;28;20131;-72
2023/09/22 07:09:23;;;;;;;3.00;0.98;;;10.20;99.90;;;9.43;100.00;100006.88;4186703;28;20472;-77
2023/09/22 07:11:23;;;;;;;4.88;0.80;;;10.30;99.90;;;9.50;100.00;100011.47;4201968;28;20103;-77
2023/09/22 07:13:24;;;;;;;1.23;0.68;;;10.30;99.90;;;9.55;100.00;100012.63;4193723;28;20025;-77
2023/09/22 07:15:25;;;;;;;4.43;1.17;;;10.40;99.90;;;9.60;100.00;100015.56;4198341;28;20078;-75
2023/09/22 07:17:26;;;;;;;2.65;0.88;;;10.40;99.90;;;9.67;100.00;100021.00;4203334;28;20070;-75
2023/09/22 07:19:27;;;;;;;3.53;0.75;;;10.40;99.90;;;9.68;100.00;100020.81;4202950;28;20033;-77
2023/09/22 07:21:28;;;;;;;4.25;0.70;;;10.50;99.90;;;9.78;100.00;100029.34;4194993;28;20377;-72
2023/09/22 07:23:30;;;;;;;2.95;0.82;;;10.50;99.90;;;9.82;100.00;100033.31;4186338;28;20069;-73
2023/09/22 07:25:31;;;;;;;2.33;0.60;;;10.60;99.90;;;9.86;100.00;100026.69;4186478;28;20024;-73
2023/09/22 07:27:32;;;;;;;3.53;0.52;;;10.60;99.90;;;9.91;100.00;100040.19;4186555;28;20435;-73
2023/09/22 07:29:33;;;;;;;4.60;0.68;;;10.70;99.90;;;9.96;100.00;100043.13;4186387;28;20014;-73
2023/09/22 07:31:34;;;;;;;3.78;0.65;;;10.70;99.90;;;9.97;100.00;100034.22;4186316;28;20115;-73
2023/09/22 07:33:35;;;;;;;2.72;0.65;;;10.70;99.90;;;10.04;100.00;100037.00;4199138;28;20025;-73
2023/09/22 07:35:36;;;;;;;3.35;1.00;;;10.80;99.90;;;10.10;100.00;100038.97;4188709;28;20028;-73
2023/09/22 07:37:37;;;;;;;5.63;0.85;;;10.90;99.90;;;10.14;100.00;100047.41;4192646;28;20036;-73
2023/09/22 07:39:38;;;;;;;1.73;0.70;;;10.90;99.90;;;10.21;100.00;100045.72;4195586;28;20447;-73
2023/09/22 07:41:39;;;;;;;3.90;1.15;;;11.00;99.90;;;10.24;100.00;100048.84;4200920;28;20063;-73
2023/09/22 07:43:40;;;;;;;4.53;0.57;;;11.00;99.90;;;10.29;100.00;100043.06;4185577;28;20404;-73
2023/09/22 07:45:41;;;;;;;4.38;0.68;;;11.10;99.90;;;10.37;100.00;100053.56;4192185;28;20025;-73
2023/09/22 07:47:42;;;;;;;2.10;0.70;;;11.20;99.90;;;10.43;100.00;100066.06;4185050;28;20112;-73
2023/09/22 07:49:43;;;;;;;2.38;0.70;;;11.20;99.90;;;10.51;100.00;100063.41;4199571;28;20024;-73
2023/09/22 07:51:43;;;;;;;3.95;0.80;;;11.30;99.90;;;10.54;100.00;100069.13;4202709;28;20028;-73
2023/09/22 07:53:46;;;;;;;4.30;1.08;;;11.30;99.90;;;10.64;100.00;100066.28;4202744;28;20083;-73
2023/09/22 07:55:48;;;;;;;1.23;0.60;;;11.40;99.90;;;10.67;100.00;100076.50;4191035;28;20029;-73
2023/09/22 07:57:50;;;;;;;4.40;1.20;;;11.50;99.90;;;10.72;100.00;100079.44;4185739;28;20032;-73
2023/09/22 07:59:50;;;;;;;5.45;0.60;;;11.50;99.90;;;10.78;100.00;100080.56;4185997;28;20025;-73
2023/09/22 08:01:51;;;;;;;2.10;0.50;;;11.60;99.90;;;10.85;100.00;100095.53;4191588;28;20028;-73
2023/09/22 08:03:52;;;;;;;4.20;0.70;;;11.60;99.90;;;10.89;100.00;100094.19;4185635;28;20029;-73
2023/09/22 08:05:53;;;;;;;6.05;0.65;;;11.70;99.90;;;10.96;100.00;100096.97;4185895;28;20025;-73
2023/09/22 08:07:54;;;;;;;3.42;0.50;;;11.80;99.90;;;11.01;100.00;100103.34;4185861;28;20520;-73
2023/09/22 08:09:55;;;;;;;1.60;0.60;;;11.80;99.90;;;11.05;100.00;100094.06;4186025;28;20025;-73
2023/09/22 08:11:56;;;;;;;6.20;1.00;;;11.90;99.90;;;11.14;100.00;100107.25;4194016;28;20035;-73
2023/09/22 08:13:58;;;;;;;3.33;0.93;;;11.90;99.90;;;11.25;100.00;100117.38;4187708;28;20029;-73
2023/09/22 08:16:00;;;;;;;4.25;0.70;;;12.00;99.90;;;11.29;100.00;100113.41;4185595;28;20442;-73
2023/09/22 08:18:05;;;;;;;3.28;0.85;;;12.10;99.90;;;11.35;100.00;100118.00;4185764;28;20393;-73
2023/09/22 08:20:08;;;;;;;4.00;0.50;;;12.10;99.90;;;11.51;100.00;100117.84;4193447;28;20491;-73
2023/09/22 08:22:10;;;;;;;4.43;0.85;;;12.30;99.90;;;11.57;100.00;100117.97;4197297;28;20032;-73
2023/09/22 08:24:13;;;;;;;3.55;0.70;;;12.40;99.90;;;11.71;100.00;100121.66;4184238;28;20495;-73
2023/09/22 08:26:17;;;;;;;2.53;0.73;;;12.40;99.90;;;11.78;100.00;100127.91;4185654;28;20033;-73
2023/09/22 08:28:20;;;;;;;4.95;0.65;;;12.50;99.90;;;11.86;100.00;100127.81;4185606;28;20512;-73
2023/09/22 08:30:22;;;;;;;5.10;0.80;;;12.70;99.90;;;11.89;100.00;100127.47;4185566;28;20480;-73